createdAt,value
2019-04-27T00:00:24.642Z,8.27
2019-04-27T00:02:13.467Z,9.27
2019-04-27T00:04:16.205Z,7.80
2019-04-27T00:06:07.507Z,7.77
2019-04-27T00:07:43.973Z,7.27
2019-04-27T00:09:33.979Z,7.73
2019-04-27T00:11:20.849Z,7.87
2019-04-27T00:12:57.267Z,8.37
2019-04-27T00:14:32.857Z,7.23
2019-04-27T00:16:46.960Z,7.60
2019-04-27T00:18:37.133Z,7.73
2019-04-27T00:20:29.745Z,7.23
2019-04-27T00:22:25.896Z,6.83
2019-04-27T00:24:00.646Z,6.67
2019-04-27T00:25:35.010Z,7.53
2019-04-27T00:27:09.521Z,8.17
2019-04-27T00:28:44.020Z,7.03
2019-04-27T00:30:18.993Z,7.90
2019-04-27T00:31:55.669Z,7.60
2019-04-27T00:33:29.797Z,6.77
2019-04-27T00:35:04.986Z,8.10
2019-04-27T00:36:47.638Z,7.50
2019-04-27T00:38:30.914Z,7.53
2019-04-27T00:40:09.565Z,8.40
2019-04-27T00:41:44.051Z,7.97
2019-04-27T00:43:18.525Z,7.40
2019-04-27T00:44:54.154Z,7.93
2019-04-27T00:46:29.161Z,7.90
2019-04-27T00:48:03.703Z,8.03
2019-04-27T00:49:38.186Z,8.27
2019-04-27T00:51:14.279Z,8.53
2019-04-27T00:52:48.881Z,8.50
2019-04-27T00:54:23.879Z,9.33
2019-04-27T00:56:16.404Z,9.03
2019-04-27T00:58:28.406Z,8.90
2019-04-27T01:00:23.478Z,9.03
2019-04-27T01:02:09.623Z,9.30
2019-04-27T01:04:06.025Z,9.20
2019-04-27T01:05:40.481Z,8.93
2019-04-27T01:07:14.836Z,10.10
2019-04-27T01:08:49.275Z,9.63
2019-04-27T01:10:23.930Z,10.23
2019-04-27T01:11:58.627Z,10.33
2019-04-27T01:13:34.720Z,10.20
2019-04-27T01:15:09.567Z,10.63
2019-04-27T01:16:44.461Z,9.30
2019-04-27T01:18:19.782Z,10.50
2019-04-27T01:19:54.597Z,9.70
2019-04-27T01:21:29.626Z,9.47
2019-04-27T01:23:04.328Z,9.17
2019-04-27T01:24:39.192Z,9.53
2019-04-27T01:26:40.202Z,9.27
2019-04-27T01:28:38.844Z,9.60
2019-04-27T01:30:41.961Z,10.03
2019-04-27T01:32:16.426Z,10.13
2019-04-27T01:33:51.218Z,10.20
2019-04-27T01:35:25.602Z,10.73
2019-04-27T01:37:00.062Z,9.70
2019-04-27T01:38:34.746Z,10.77
2019-04-27T01:40:09.789Z,10.47
2019-04-27T01:41:44.713Z,9.67
2019-04-27T01:43:19.074Z,11.03
2019-04-27T01:44:53.457Z,10.70
2019-04-27T01:46:29.447Z,11.17
2019-04-27T01:48:04.331Z,10.97
2019-04-27T01:49:39.682Z,11.23
2019-04-27T01:51:14.699Z,11.57
2019-04-27T01:52:49.136Z,11.53
2019-04-27T01:54:25.337Z,10.97
2019-04-27T01:55:59.793Z,10.47
2019-04-27T01:57:34.330Z,10.47
2019-04-27T01:59:08.809Z,10.23
2019-04-27T02:01:02.910Z,11.57
2019-04-27T02:02:43.825Z,10.93
2019-04-27T02:04:24.171Z,11.67
2019-04-27T02:05:59.376Z,11.63
2019-04-27T02:07:33.996Z,11.03
2019-04-27T02:09:12.599Z,12.40
2019-04-27T02:10:47.340Z,11.37
2019-04-27T02:12:22.099Z,10.80
2019-04-27T02:13:57.014Z,11.23
2019-04-27T02:15:31.545Z,11.40
2019-04-27T02:17:06.011Z,11.13
2019-04-27T02:18:40.772Z,9.73
2019-04-27T02:20:15.391Z,12.03
2019-04-27T02:21:51.578Z,10.00
2019-04-27T02:23:26.107Z,10.03
2019-04-27T02:25:00.509Z,12.30
2019-04-27T02:26:35.206Z,11.03
2019-04-27T02:28:19.566Z,10.77
2019-04-27T02:30:11.987Z,10.60
2019-04-27T02:32:05.505Z,12.57
2019-04-27T02:33:44.044Z,13.00
2019-04-27T02:35:19.308Z,9.87
2019-04-27T02:36:54.265Z,10.77
2019-04-27T02:38:30.555Z,10.43
2019-04-27T02:40:27.819Z,9.80
2019-04-27T02:42:02.342Z,9.90
2019-04-27T02:43:49.749Z,10.13
2019-04-27T02:45:24.217Z,11.33
2019-04-27T02:47:00.388Z,10.10
2019-04-27T02:48:51.904Z,10.00
2019-04-27T02:50:11.337Z,9.47
2019-04-27T02:52:01.736Z,11.00
2019-04-27T02:53:56.101Z,10.60
2019-04-27T02:55:30.772Z,10.37
2019-04-27T02:57:05.398Z,9.50
2019-04-27T02:58:40.680Z,9.50
2019-04-27T03:00:15.551Z,9.60
2019-04-27T03:01:56.116Z,10.00
2019-04-27T03:03:30.592Z,11.07
2019-04-27T03:05:06.274Z,10.50
2019-04-27T03:06:40.776Z,9.63
2019-04-27T03:08:15.259Z,9.97
2019-04-27T03:09:50.952Z,10.50
2019-04-27T03:11:26.831Z,9.57
2019-04-27T03:13:20.483Z,9.40
2019-04-27T03:15:10.383Z,9.90
2019-04-27T03:17:03.918Z,9.47
2019-04-27T03:18:41.422Z,10.73
2019-04-27T03:20:35.453Z,11.27
2019-04-27T03:22:44.583Z,9.07
2019-04-27T03:24:19.967Z,10.97
2019-04-27T03:26:10.724Z,10.73
2019-04-27T03:27:46.015Z,13.37
2019-04-27T03:29:23.016Z,9.67
2019-04-27T03:30:57.027Z,11.67
2019-04-27T03:32:31.945Z,10.23
2019-04-27T03:34:15.799Z,10.90
2019-04-27T03:35:43.941Z,10.27
2019-04-27T03:37:20.329Z,10.53
2019-04-27T03:38:54.893Z,12.03
2019-04-27T03:40:30.758Z,12.53
2019-04-27T03:42:06.314Z,11.97
2019-04-27T03:43:40.793Z,12.70
2019-04-27T03:45:15.658Z,12.43
2019-04-27T03:46:50.031Z,10.53
2019-04-27T03:48:24.506Z,11.97
2019-04-27T03:50:00.055Z,13.00
2019-04-27T03:51:41.043Z,11.93
2019-04-27T03:53:39.747Z,12.30
2019-04-27T03:55:19.557Z,13.30
2019-04-27T03:57:12.469Z,12.77
2019-04-27T03:58:50.661Z,13.60
2019-04-27T04:00:25.703Z,12.40
2019-04-27T04:02:02.358Z,12.73
2019-04-27T04:03:39.390Z,12.13
2019-04-27T04:05:14.066Z,14.43
2019-04-27T04:06:49.323Z,13.07
2019-04-27T04:08:24.115Z,14.40
2019-04-27T04:10:00.241Z,14.27
2019-04-27T04:11:49.160Z,14.30
2019-04-27T04:13:39.864Z,11.50
2019-04-27T04:15:23.051Z,14.17
2019-04-27T04:17:02.730Z,11.67
2019-04-27T04:19:10.108Z,14.13
2019-04-27T04:20:44.737Z,14.17
2019-04-27T04:22:19.922Z,13.83
2019-04-27T04:23:54.398Z,13.07
2019-04-27T04:25:30.224Z,13.07
2019-04-27T04:27:05.543Z,14.33
2019-04-27T04:28:40.006Z,12.57
2019-04-27T04:30:14.832Z,15.73
2019-04-27T04:31:50.266Z,13.50
2019-04-27T04:33:25.047Z,14.40
2019-04-27T04:35:21.123Z,16.53
2019-04-27T04:36:54.602Z,14.87
2019-04-27T04:38:30.486Z,15.70
2019-04-27T04:40:05.583Z,16.27
2019-04-27T04:41:52.292Z,14.70
2019-04-27T04:43:40.773Z,15.80
2019-04-27T04:45:33.102Z,18.20
2019-04-27T04:47:32.886Z,16.17
2019-04-27T04:49:09.440Z,15.47
2019-04-27T04:50:43.491Z,16.67
2019-04-27T04:52:19.716Z,14.40
2019-04-27T04:53:54.067Z,16.97
2019-04-27T04:55:30.554Z,15.33
2019-04-27T04:57:05.559Z,16.60
2019-04-27T04:58:41.399Z,16.13
2019-04-27T05:00:16.551Z,16.80
2019-04-27T05:01:50.925Z,16.73
2019-04-27T05:03:25.333Z,15.50
2019-04-27T05:04:59.750Z,16.23
2019-04-27T05:06:34.173Z,15.83
2019-04-27T05:08:09.074Z,16.07
2019-04-27T05:09:43.735Z,17.27
2019-04-27T05:11:19.617Z,16.93
2019-04-27T05:12:54.262Z,16.30
2019-04-27T05:14:28.992Z,15.83
2019-04-27T05:16:03.469Z,15.53
2019-04-27T05:17:39.744Z,17.40
2019-04-27T05:19:14.356Z,17.73
2019-04-27T05:20:58.633Z,16.43
2019-04-27T05:22:33.497Z,18.90
2019-04-27T05:24:09.336Z,17.50
2019-04-27T05:25:44.355Z,17.23
2019-04-27T05:27:19.212Z,16.30
2019-04-27T05:28:54.048Z,19.10
2019-04-27T05:30:29.133Z,17.13
2019-04-27T05:32:03.998Z,17.37
2019-04-27T05:33:38.957Z,16.63
2019-04-27T05:35:13.899Z,15.80
2019-04-27T05:36:52.434Z,15.83
2019-04-27T05:38:25.636Z,17.23
2019-04-27T05:40:00.494Z,17.97
2019-04-27T05:41:37.533Z,14.47
2019-04-27T05:43:12.969Z,14.53
2019-04-27T05:45:06.882Z,14.27
2019-04-27T05:46:58.643Z,14.27
2019-04-27T05:48:33.374Z,15.10
2019-04-27T05:50:13.382Z,13.40
2019-04-27T05:51:48.496Z,14.23
2019-04-27T05:53:23.680Z,13.47
2019-04-27T05:54:58.995Z,13.53
2019-04-27T05:56:33.966Z,14.13
2019-04-27T05:58:09.341Z,12.30
2019-04-27T05:59:43.884Z,15.13
2019-04-27T06:01:19.680Z,12.83
2019-04-27T06:02:54.238Z,14.00
2019-04-27T06:04:29.129Z,13.57
2019-04-27T06:06:03.931Z,12.17
2019-04-27T06:07:39.586Z,14.57
2019-04-27T06:09:14.556Z,13.17
2019-04-27T06:10:49.480Z,12.93
2019-04-27T06:12:23.890Z,14.63
2019-04-27T06:13:59.317Z,11.23
2019-04-27T06:15:34.403Z,11.60
2019-04-27T06:17:09.460Z,11.23
2019-04-27T06:18:44.458Z,11.43
2019-04-27T06:20:18.998Z,11.97
2019-04-27T06:21:53.803Z,12.67
2019-04-27T06:23:29.002Z,11.47
2019-04-27T06:25:04.018Z,11.17
2019-04-27T06:26:39.927Z,12.00
2019-04-27T06:28:14.590Z,11.27
2019-04-27T06:29:49.153Z,10.40
2019-04-27T06:31:23.675Z,12.30
2019-04-27T06:32:59.447Z,11.13
2019-04-27T06:34:34.093Z,11.10
2019-04-27T06:36:10.007Z,11.40
2019-04-27T06:37:44.674Z,12.90
2019-04-27T06:39:20.582Z,11.67
2019-04-27T06:40:55.577Z,11.73
2019-04-27T06:42:30.390Z,14.37
2019-04-27T06:44:04.886Z,12.23
2019-04-27T06:45:39.389Z,13.80
2019-04-27T06:47:13.825Z,12.10
2019-04-27T06:48:49.545Z,11.83
2019-04-27T06:50:24.059Z,11.87
2019-04-27T06:51:58.808Z,12.13
2019-04-27T06:53:33.427Z,12.10
2019-04-27T06:55:09.389Z,12.87
2019-04-27T06:56:44.315Z,13.97
2019-04-27T06:58:19.946Z,11.87
2019-04-27T06:59:54.973Z,12.67
2019-04-27T07:01:29.929Z,12.33
2019-04-27T07:03:04.669Z,13.33
2019-04-27T07:04:39.378Z,12.67
2019-04-27T07:06:14.211Z,12.83
2019-04-27T07:07:49.054Z,12.67
2019-04-27T07:09:23.477Z,12.37
2019-04-27T07:10:58.812Z,11.93
2019-04-27T07:12:33.669Z,11.73
2019-04-27T07:14:11.257Z,12.67
2019-04-27T07:15:44.950Z,10.63
2019-04-27T07:17:19.783Z,13.33
2019-04-27T07:18:54.205Z,11.90
2019-04-27T07:20:30.515Z,12.93
2019-04-27T07:22:05.179Z,13.70
2019-04-27T07:23:59.048Z,13.50
2019-04-27T07:25:33.265Z,11.63
2019-04-27T07:27:09.271Z,11.67
2019-04-27T07:28:43.867Z,14.53
2019-04-27T07:30:18.988Z,10.17
2019-04-27T07:31:53.681Z,14.13
2019-04-27T07:33:29.654Z,13.03
2019-04-27T07:35:04.646Z,13.20
2019-04-27T07:36:39.281Z,14.30
2019-04-27T07:38:14.121Z,12.03
2019-04-27T07:39:49.185Z,12.40
2019-04-27T07:41:23.831Z,13.70
2019-04-27T07:43:04.718Z,13.97
2019-04-27T07:44:52.603Z,13.67
2019-04-27T07:46:29.883Z,13.03
2019-04-27T07:48:03.604Z,13.03
2019-04-27T07:49:39.085Z,13.67
2019-04-27T07:51:13.719Z,13.57
2019-04-27T07:52:48.677Z,11.97
2019-04-27T07:54:23.194Z,12.30
2019-04-27T07:55:59.289Z,11.77
2019-04-27T07:57:33.803Z,13.33
2019-04-27T07:59:09.111Z,11.87
2019-04-27T08:00:44.132Z,11.43
2019-04-27T08:02:19.156Z,11.63
2019-04-27T08:03:53.990Z,11.30
2019-04-27T08:05:29.168Z,11.40
2019-04-27T08:07:04.130Z,11.57
2019-04-27T08:08:39.634Z,14.40
2019-04-27T08:10:16.947Z,12.40
2019-04-27T08:11:51.615Z,12.43
2019-04-27T08:13:26.818Z,13.03
2019-04-27T08:15:01.538Z,12.57
2019-04-27T08:16:38.260Z,12.40
2019-04-27T08:18:16.321Z,16.63
2019-04-27T08:19:50.997Z,12.90
2019-04-27T08:21:25.457Z,13.80
2019-04-27T08:23:01.340Z,12.63
2019-04-27T08:24:36.233Z,13.27
2019-04-27T08:26:19.651Z,15.07
2019-04-27T08:28:03.125Z,13.60
2019-04-27T08:29:56.301Z,15.70
2019-04-27T08:31:38.588Z,13.93
2019-04-27T08:33:13.602Z,13.43
2019-04-27T08:34:49.612Z,15.03
2019-04-27T08:36:24.465Z,12.80
2019-04-27T08:37:59.385Z,15.17
2019-04-27T08:39:34.090Z,16.87
2019-04-27T08:41:08.964Z,18.33
2019-04-27T08:42:43.543Z,18.47
2019-04-27T08:44:19.413Z,17.33
2019-04-27T08:45:54.001Z,17.40
2019-04-27T08:47:29.342Z,15.97
2019-04-27T08:49:04.133Z,18.57
2019-04-27T08:50:41.753Z,16.53
2019-04-27T08:52:14.949Z,16.43
2019-04-27T08:53:50.129Z,18.70
2019-04-27T08:55:24.914Z,19.47
2019-04-27T08:57:01.660Z,17.67
2019-04-27T08:58:35.784Z,17.97
2019-04-27T09:00:10.872Z,17.27
2019-04-27T09:01:45.301Z,19.60
2019-04-27T09:03:19.950Z,16.83
2019-04-27T09:04:54.461Z,18.37
2019-04-27T09:06:31.170Z,16.70
2019-04-27T09:08:24.367Z,15.27
2019-04-27T09:10:04.503Z,16.60
2019-04-27T09:11:46.385Z,16.07
2019-04-27T09:13:30.344Z,17.77
2019-04-27T09:15:11.846Z,16.27
2019-04-27T09:17:09.626Z,16.93
2019-04-27T09:18:44.194Z,17.37
2019-04-27T09:20:23.270Z,18.00
2019-04-27T09:22:15.988Z,17.87
2019-04-27T09:23:48.886Z,17.30
2019-04-27T09:25:23.853Z,17.93
2019-04-27T09:26:59.589Z,16.30
2019-04-27T09:28:34.360Z,16.43
2019-04-27T09:30:10.210Z,16.17
2019-04-27T09:31:45.192Z,15.10
2019-04-27T09:33:22.179Z,16.43
2019-04-27T09:34:56.972Z,14.20
2019-04-27T09:36:31.513Z,14.77
2019-04-27T09:38:07.822Z,14.13
2019-04-27T09:39:42.414Z,15.43
2019-04-27T09:41:17.070Z,15.30
2019-04-27T09:42:51.822Z,17.13
2019-04-27T09:44:26.744Z,15.63
2019-04-27T09:46:01.483Z,18.17
2019-04-27T09:47:38.850Z,13.77
2019-04-27T09:49:12.500Z,16.13
2019-04-27T09:50:46.972Z,16.67
2019-04-27T09:52:26.315Z,16.23
2019-04-27T09:53:58.027Z,17.37
2019-04-27T09:55:32.579Z,17.80
2019-04-27T09:57:07.310Z,16.20
2019-04-27T09:58:41.682Z,18.73
2019-04-27T10:00:17.415Z,15.50
2019-04-27T10:01:51.816Z,16.53
2019-04-27T10:03:26.719Z,17.73
2019-04-27T10:05:01.289Z,17.47
2019-04-27T10:06:36.318Z,17.17
2019-04-27T10:08:11.130Z,16.73
2019-04-27T10:09:47.313Z,18.20
2019-04-27T10:11:21.783Z,18.27
2019-04-27T10:12:56.942Z,17.60
2019-04-27T10:14:31.874Z,16.77
2019-04-27T10:16:06.418Z,17.27
2019-04-27T10:17:41.084Z,16.73
2019-04-27T10:19:28.213Z,16.13
2019-04-27T10:20:59.649Z,17.17
2019-04-27T10:22:40.496Z,16.53
2019-04-27T10:24:06.571Z,15.73
2019-04-27T10:25:41.367Z,15.00
2019-04-27T10:27:16.176Z,15.37
2019-04-27T10:28:50.719Z,16.03
2019-04-27T10:30:25.805Z,16.57
2019-04-27T10:32:00.600Z,15.57
2019-04-27T10:33:35.869Z,16.60
2019-04-27T10:35:10.594Z,14.77
2019-04-27T10:36:46.088Z,14.50
2019-04-27T10:38:20.800Z,16.77
2019-04-27T10:39:56.036Z,16.10
2019-04-27T10:41:30.629Z,16.27
2019-04-27T10:43:06.284Z,14.33
2019-04-27T10:44:40.874Z,13.97
2019-04-27T10:46:15.717Z,14.77
2019-04-27T10:47:50.251Z,15.30
2019-04-27T10:49:25.031Z,13.97
2019-04-27T10:50:59.909Z,15.73
2019-04-27T10:52:34.321Z,15.67
2019-04-27T10:54:08.858Z,15.53
2019-04-27T10:55:43.254Z,16.60
2019-04-27T10:57:17.654Z,16.10
2019-04-27T10:58:52.045Z,15.13
2019-04-27T11:00:33.603Z,15.17
2019-04-27T11:02:08.016Z,12.53
2019-04-27T11:04:00.703Z,16.17
2019-04-27T11:05:54.473Z,14.97
2019-04-27T11:07:33.254Z,14.87
2019-04-27T11:09:10.483Z,14.73
2019-04-27T11:10:46.144Z,14.00
2019-04-27T11:12:20.738Z,14.73
2019-04-27T11:13:57.204Z,13.63
2019-04-27T11:15:31.944Z,15.53
2019-04-27T11:17:08.049Z,14.23
2019-04-27T11:18:42.742Z,13.13
2019-04-27T11:20:17.783Z,14.80
2019-04-27T11:21:52.535Z,15.07
2019-04-27T11:23:27.310Z,13.33
2019-04-27T11:25:01.679Z,14.73
2019-04-27T11:26:36.402Z,14.70
2019-04-27T11:28:11.114Z,13.37
2019-04-27T11:29:46.265Z,14.13
2019-04-27T11:31:20.771Z,13.93
2019-04-27T11:32:58.847Z,14.43
2019-04-27T11:34:49.703Z,14.83
2019-04-27T11:36:41.733Z,16.77
2019-04-27T11:38:16.706Z,20.37
2019-04-27T11:39:51.681Z,19.07
2019-04-27T11:41:26.366Z,18.73
2019-04-27T11:43:01.063Z,17.97
2019-04-27T11:44:35.917Z,17.07
2019-04-27T11:46:10.885Z,15.20
2019-04-27T11:47:45.491Z,17.30
2019-04-27T11:49:20.423Z,16.70
2019-04-27T11:50:56.029Z,17.30
2019-04-27T11:52:30.886Z,16.23
2019-04-27T11:54:05.437Z,17.23
2019-04-27T11:55:39.874Z,16.53
2019-04-27T11:57:14.694Z,16.43
2019-04-27T11:58:49.677Z,16.33
2019-04-27T12:00:25.214Z,16.27
2019-04-27T12:01:59.904Z,15.30
2019-04-27T12:03:34.655Z,14.50
2019-04-27T12:05:09.542Z,14.10
2019-04-27T12:06:46.120Z,14.53
2019-04-27T12:08:20.653Z,13.47
2019-04-27T12:09:55.559Z,15.13
2019-04-27T12:11:30.233Z,15.70
2019-04-27T12:13:05.759Z,15.93
2019-04-27T12:14:41.179Z,14.93
2019-04-27T12:16:17.588Z,14.57
2019-04-27T12:17:52.188Z,15.87
2019-04-27T12:19:27.099Z,15.77
2019-04-27T12:21:01.750Z,15.13
2019-04-27T12:22:36.152Z,14.87
2019-04-27T12:24:10.882Z,14.67
2019-04-27T12:25:46.154Z,13.27
2019-04-27T12:27:40.137Z,15.57
2019-04-27T12:29:17.505Z,16.07
2019-04-27T12:31:09.150Z,15.97
2019-04-27T12:32:45.332Z,15.53
2019-04-27T12:34:36.151Z,15.90
2019-04-27T12:36:11.063Z,15.07
2019-04-27T12:37:45.945Z,14.93
2019-04-27T12:39:20.736Z,14.23
2019-04-27T12:40:56.520Z,14.70
2019-04-27T12:42:31.080Z,13.90
2019-04-27T12:44:07.061Z,15.00
2019-04-27T12:45:43.754Z,14.50
2019-04-27T12:47:18.758Z,16.60
2019-04-27T12:48:55.306Z,16.03
2019-04-27T12:50:29.846Z,14.90
2019-04-27T12:52:05.871Z,14.70
2019-04-27T12:54:05.943Z,13.80
2019-04-27T12:55:58.426Z,14.37
2019-04-27T12:57:41.577Z,12.93
2019-04-27T12:59:34.091Z,11.27
2019-04-27T13:01:10.722Z,11.47
2019-04-27T13:02:45.117Z,12.30
2019-04-27T13:04:19.996Z,13.53
2019-04-27T13:05:54.922Z,13.53
2019-04-27T13:07:29.972Z,12.80
2019-04-27T13:09:07.317Z,12.37
2019-04-27T13:10:42.223Z,12.57
2019-04-27T13:12:17.012Z,11.93
2019-04-27T13:13:51.859Z,11.87
2019-04-27T13:15:28.299Z,11.70
2019-04-27T13:17:03.427Z,12.60
2019-04-27T13:18:38.089Z,12.07
2019-04-27T13:20:13.968Z,12.07
2019-04-27T13:21:48.655Z,10.93
2019-04-27T13:23:23.760Z,10.97
2019-04-27T13:24:58.796Z,12.77
2019-04-27T13:26:33.298Z,12.73
2019-04-27T13:28:07.970Z,14.37
2019-04-27T13:29:42.437Z,13.70
2019-04-27T13:31:17.139Z,12.50
2019-04-27T13:32:51.980Z,10.60
2019-04-27T13:34:26.393Z,11.30
2019-04-27T13:36:01.189Z,12.97
2019-04-27T13:37:39.187Z,12.57
2019-04-27T13:39:15.819Z,11.87
2019-04-27T13:41:10.237Z,12.00
2019-04-27T13:43:08.809Z,13.03
2019-04-27T13:44:43.229Z,11.97
2019-04-27T13:46:42.987Z,12.20
2019-04-27T13:48:51.752Z,11.93
2019-04-27T13:50:48.632Z,12.23
2019-04-27T13:52:26.768Z,10.80
2019-04-27T13:54:14.189Z,12.67
2019-04-27T13:55:37.950Z,13.53
2019-04-27T13:57:12.650Z,13.47
2019-04-27T13:58:47.205Z,11.87
2019-04-27T14:00:21.747Z,11.97
2019-04-27T14:01:56.629Z,11.60
2019-04-27T14:03:31.125Z,11.20
2019-04-27T14:05:06.213Z,12.13
2019-04-27T14:06:42.110Z,11.63
2019-04-27T14:08:16.738Z,12.07
2019-04-27T14:09:51.209Z,12.60
2019-04-27T14:11:25.601Z,12.77
2019-04-27T14:13:00.010Z,11.40
2019-04-27T14:14:34.389Z,11.63
2019-04-27T14:16:09.098Z,12.90
2019-04-27T14:17:43.480Z,11.90
2019-04-27T14:19:18.922Z,13.53
2019-04-27T14:20:53.462Z,13.60
2019-04-27T14:22:28.552Z,13.83
2019-04-27T14:24:04.293Z,13.50
2019-04-27T14:25:39.118Z,14.20
2019-04-27T14:27:14.702Z,13.67
2019-04-27T14:28:50.015Z,12.77
2019-04-27T14:30:24.622Z,11.80
2019-04-27T14:31:59.045Z,12.93
2019-04-27T14:33:33.485Z,12.53
2019-04-27T14:35:08.493Z,10.70
2019-04-27T14:36:42.997Z,9.97
2019-04-27T14:38:19.046Z,9.47
2019-04-27T14:39:54.106Z,10.20
2019-04-27T14:41:28.926Z,10.40
2019-04-27T14:43:03.609Z,10.30
2019-04-27T14:44:38.943Z,10.90
2019-04-27T14:46:13.605Z,11.03
2019-04-27T14:47:48.203Z,11.20
2019-04-27T14:49:22.728Z,10.40
2019-04-27T14:50:58.948Z,10.63
2019-04-27T14:52:33.665Z,10.93
2019-04-27T14:54:09.296Z,11.07
2019-04-27T14:55:43.802Z,11.37
2019-04-27T14:57:20.344Z,11.40
2019-04-27T14:58:55.010Z,12.13
2019-04-27T15:00:30.648Z,11.17
2019-04-27T15:02:05.630Z,12.63
2019-04-27T15:03:40.315Z,12.07
2019-04-27T15:05:15.045Z,11.53
2019-04-27T15:06:49.694Z,12.63
2019-04-27T15:08:25.556Z,12.30
2019-04-27T15:10:00.149Z,13.80
2019-04-27T15:11:34.729Z,12.47
2019-04-27T15:13:09.177Z,14.33
2019-04-27T15:14:43.626Z,12.47
2019-04-27T15:16:17.998Z,14.07
2019-04-27T15:17:52.353Z,15.43
2019-04-27T15:19:32.890Z,14.43
2019-04-27T15:21:07.527Z,14.60
2019-04-27T15:22:42.483Z,14.30
2019-04-27T15:24:16.871Z,14.30
2019-04-27T15:25:51.332Z,15.10
2019-04-27T15:27:37.454Z,14.70
2019-04-27T15:29:07.907Z,14.00
2019-04-27T15:31:23.532Z,13.00
2019-04-27T15:33:28.988Z,14.40
2019-04-27T15:35:21.625Z,13.50
2019-04-27T15:37:21.226Z,13.07
2019-04-27T15:38:58.481Z,11.67
2019-04-27T15:41:05.936Z,12.07
2019-04-27T15:42:51.331Z,11.87
2019-04-27T15:44:24.405Z,10.87
2019-04-27T15:45:58.793Z,12.00
2019-04-27T15:47:33.680Z,10.43
2019-04-27T15:49:11.282Z,11.10
2019-04-27T15:50:44.733Z,10.50
2019-04-27T15:52:19.335Z,10.03
2019-04-27T15:53:54.020Z,9.97
2019-04-27T15:55:34.561Z,10.07
2019-04-27T15:57:09.575Z,9.47
2019-04-27T15:58:42.030Z,8.57
2019-04-27T16:00:23.144Z,6.37
2019-04-27T16:01:58.630Z,5.40
2019-04-27T16:03:33.502Z,5.00
2019-04-27T16:05:09.312Z,5.10
2019-04-27T16:06:47.602Z,4.50
2019-04-27T16:08:21.301Z,3.73
2019-04-27T16:09:59.157Z,4.10
2019-04-27T16:11:33.042Z,3.93
2019-04-27T16:13:13.365Z,4.83
2019-04-27T16:14:44.353Z,4.40
2019-04-27T16:16:19.297Z,4.07
2019-04-27T16:17:56.135Z,4.33
2019-04-27T16:19:30.578Z,5.83
2019-04-27T16:21:07.189Z,5.37
2019-04-27T16:22:42.729Z,7.50
2019-04-27T16:24:21.132Z,6.57
2019-04-27T16:25:54.811Z,5.67
2019-04-27T16:27:33.669Z,6.13
2019-04-27T16:29:08.186Z,5.97
2019-04-27T16:30:45.698Z,5.83
2019-04-27T16:32:21.197Z,6.00
2019-04-27T16:33:59.166Z,7.73
2019-04-27T16:35:33.129Z,6.03
2019-04-27T16:37:09.549Z,5.13
2019-04-27T16:38:51.734Z,6.13
2019-04-27T16:40:26.169Z,7.07
2019-04-27T16:42:00.968Z,5.00
2019-04-27T16:43:35.462Z,3.97
2019-04-27T16:45:09.921Z,4.93
2019-04-27T16:46:44.358Z,5.73
2019-04-27T16:48:18.785Z,5.57
2019-04-27T16:49:53.158Z,6.13
2019-04-27T16:51:29.727Z,7.73
2019-04-27T16:53:03.696Z,6.43
2019-04-27T16:54:39.571Z,6.37
2019-04-27T16:56:16.238Z,6.57
2019-04-27T16:57:50.701Z,6.00
2019-04-27T16:59:42.284Z,4.97
2019-04-27T17:01:06.709Z,5.00
2019-04-27T17:02:40.250Z,5.70
2019-04-27T17:04:15.107Z,4.80
2019-04-27T17:05:49.967Z,5.70
2019-04-27T17:07:31.705Z,6.22
2019-04-27T17:09:05.813Z,5.90
2019-04-27T17:10:39.113Z,5.80
2019-04-27T17:12:14.051Z,6.57
2019-04-27T17:13:53.355Z,5.70
2019-04-27T17:15:59.525Z,6.63
2019-04-27T17:18:05.950Z,6.07
2019-04-27T17:19:45.046Z,5.73
2019-04-27T17:21:23.248Z,8.03
2019-04-27T17:22:58.300Z,5.97
2019-04-27T17:24:44.030Z,6.63
2019-04-27T17:26:21.190Z,7.23
2019-04-27T17:27:57.835Z,6.27
2019-04-27T17:29:31.859Z,5.07
2019-04-27T17:31:08.553Z,5.37
2019-04-27T17:32:55.071Z,5.40
2019-04-27T17:34:29.503Z,6.80
2019-04-27T17:36:04.689Z,6.90
2019-04-27T17:37:39.136Z,6.77
2019-04-27T17:39:13.644Z,6.60
2019-04-27T17:40:48.787Z,5.93
2019-04-27T17:42:29.150Z,5.63
2019-04-27T17:44:00.557Z,5.80
2019-04-27T17:45:36.326Z,5.63
2019-04-27T17:47:11.418Z,5.07
2019-04-27T17:48:45.865Z,5.57
2019-04-27T17:50:25.111Z,7.60
2019-04-27T17:51:58.414Z,6.27
2019-04-27T17:53:33.222Z,4.80
2019-04-27T17:55:08.035Z,5.53
2019-04-27T17:56:49.688Z,5.63
2019-04-27T17:58:20.835Z,6.00
2019-04-27T17:59:59.046Z,6.53
2019-04-27T18:01:31.935Z,8.53
2019-04-27T18:03:08.317Z,7.13
2019-04-27T18:04:43.174Z,6.67
2019-04-27T18:06:20.516Z,6.40
2019-04-27T18:07:53.681Z,6.20
2019-04-27T18:09:29.037Z,9.80
2019-04-27T18:11:03.633Z,6.97
2019-04-27T18:12:38.001Z,7.00
2019-04-27T18:14:14.698Z,6.23
2019-04-27T18:15:50.716Z,6.20
2019-04-27T18:17:25.242Z,9.03
2019-04-27T18:19:18.379Z,6.70
2019-04-27T18:20:52.989Z,6.73
2019-04-27T18:22:32.201Z,6.83
2019-04-27T18:24:11.005Z,9.77
2019-04-27T18:25:51.244Z,7.90
2019-04-27T18:27:43.465Z,16.60
2019-04-27T18:29:18.548Z,22.30
2019-04-27T18:31:18.281Z,11.97
2019-04-27T18:32:52.990Z,9.00
2019-04-27T18:34:28.606Z,8.33
2019-04-27T18:36:07.285Z,4.67
2019-04-27T18:37:39.714Z,4.43
2019-04-27T18:39:14.548Z,2.23
2019-04-27T18:40:49.615Z,1.93
2019-04-27T18:42:28.071Z,6.97
2019-04-27T18:44:01.312Z,8.13
2019-04-27T18:45:38.112Z,14.30
2019-04-27T18:47:13.086Z,7.87
2019-04-27T18:49:08.822Z,6.20
2019-04-27T18:50:53.691Z,6.03
2019-04-27T18:52:53.175Z,7.43
2019-04-27T18:54:28.830Z,15.00
2019-04-27T18:56:05.338Z,9.30
2019-04-27T18:57:45.814Z,11.17
2019-04-27T18:59:22.008Z,4.97
2019-04-27T19:00:58.267Z,6.30
2019-04-27T19:02:33.217Z,5.27
2019-04-27T19:04:08.681Z,1.70
2019-04-27T19:05:44.162Z,1.53
2019-04-27T19:07:19.920Z,1.37
2019-04-27T19:08:54.945Z,2.80
2019-04-27T19:10:29.892Z,3.17
2019-04-27T19:12:04.995Z,3.33
2019-04-27T19:13:40.649Z,1.10
2019-04-27T19:15:15.891Z,2.03
2019-04-27T19:16:50.710Z,3.20
2019-04-27T19:18:25.540Z,3.63
2019-04-27T19:20:00.369Z,3.83
2019-04-27T19:21:35.576Z,3.33
2019-04-27T19:23:10.686Z,4.70
2019-04-27T19:24:45.481Z,3.40
2019-04-27T19:26:58.731Z,4.57
2019-04-27T19:28:53.126Z,3.53
2019-04-27T19:30:34.713Z,2.13
2019-04-27T19:32:09.185Z,1.80
2019-04-27T19:33:43.713Z,2.23
2019-04-27T19:35:19.784Z,2.77
2019-04-27T19:36:54.462Z,4.10
2019-04-27T19:38:28.950Z,3.97
2019-04-27T19:40:03.882Z,3.37
2019-04-27T19:41:38.301Z,3.80
2019-04-27T19:43:13.039Z,4.63
2019-04-27T19:44:48.094Z,3.73
2019-04-27T19:46:22.750Z,4.00
2019-04-27T19:47:57.117Z,3.50
2019-04-27T19:49:31.910Z,5.77
2019-04-27T19:51:06.443Z,3.30
2019-04-27T19:52:40.833Z,2.90
2019-04-27T19:54:15.233Z,3.00
2019-04-27T19:56:01.552Z,2.80
2019-04-27T19:57:39.319Z,2.67
2019-04-27T19:59:21.356Z,3.70
2019-04-27T20:01:11.562Z,3.23
2019-04-27T20:02:38.051Z,3.60
2019-04-27T20:04:18.914Z,3.33
2019-04-27T20:05:53.314Z,4.10
2019-04-27T20:07:28.580Z,4.40
2019-04-27T20:09:11.282Z,2.50
2019-04-27T20:10:45.999Z,3.40
2019-04-27T20:12:21.261Z,3.23
2019-04-27T20:13:56.246Z,3.00
2019-04-27T20:15:30.861Z,2.57
2019-04-27T20:17:05.594Z,2.70
2019-04-27T20:18:41.170Z,2.73
2019-04-27T20:20:16.823Z,3.37
2019-04-27T20:21:51.628Z,3.53
2019-04-27T20:23:26.559Z,3.63
2019-04-27T20:25:02.100Z,2.90
2019-04-27T20:26:37.044Z,2.83
2019-04-27T20:28:12.126Z,4.03
2019-04-27T20:29:47.103Z,2.97
2019-04-27T20:31:22.569Z,3.77
2019-04-27T20:32:57.344Z,3.03
2019-04-27T20:34:32.405Z,2.50
2019-04-27T20:36:07.515Z,2.50
2019-04-27T20:37:42.947Z,3.10
2019-04-27T20:39:17.809Z,3.53
2019-04-27T20:40:52.992Z,2.63
2019-04-27T20:42:28.074Z,4.23
2019-04-27T20:44:02.987Z,2.93
2019-04-27T20:45:37.773Z,4.17
2019-04-27T20:47:12.933Z,4.60
2019-04-27T20:48:47.733Z,3.73
2019-04-27T20:50:22.528Z,3.90
2019-04-27T20:52:06.612Z,3.17
2019-04-27T20:53:46.421Z,3.00
2019-04-27T20:55:21.544Z,3.20
2019-04-27T20:56:57.369Z,3.10
2019-04-27T20:58:32.203Z,4.27
2019-04-27T21:00:07.492Z,2.63
2019-04-27T21:01:42.287Z,3.10
2019-04-27T21:03:28.633Z,3.17
2019-04-27T21:05:21.080Z,2.83
2019-04-27T21:07:01.147Z,2.43
2019-04-27T21:08:37.635Z,3.70
2019-04-27T21:10:12.982Z,2.50